Terminal Aerodrome Forecast
Issued by NWS Goodland, KS

Home | Current Version | Previous Version | Text Only | Print | Product List | Glossary On
Versions: 1 2 3 4 5 6 7 8 9 10 11 12 13 14 15 16 17 18 19
326
FTUS43 KGLD 211745
TAFGLD
TAF
KGLD 211745Z 2118/2218 33012KT P6SM SCT110
     FM220000 03010KT P6SM SCT110 BKN250
     FM220500 19013KT P6SM FEW250
     FM221400 30010KT P6SM FEW200=

USA.gov is the U.S. government's official web portal to all federal, state and local government web resources and services.